Terminal Aerodrome Forecast
Issued by NWS Dodge City, KS

Home | Current Version | Previous Version | Text Only | Print | Product List | Glossary On
Versions: 1 2 3 4 5 6 7 8 9 10 11 12 13 14
000
FTUS43 KDDC 261727
TAFDDC
TAF
KDDC 261727Z 2618/2718 25012KT P6SM VCSH BKN080
     FM262000 31010KT P6SM VCTS BKN060CB
     FM262300 30009KT P6SM BKN070
     FM270500 36010KT P6SM BKN045
     FM270800 01009KT P6SM VCTS BKN010CB
     FM271400 02008KT P6SM BKN025=

USA.gov is the U.S. government's official web portal to all federal, state and local government web resources and services.